createdAt,value
2022-11-29T00:01:06.057Z,5.80
2022-11-29T00:05:11.316Z,5.78
2022-11-29T00:09:15.179Z,5.77
2022-11-29T00:13:19.291Z,5.73
2022-11-29T00:17:22.864Z,5.66
2022-11-29T00:21:28.098Z,5.63
2022-11-29T00:25:31.563Z,5.60
2022-11-29T00:29:35.072Z,5.58
2022-11-29T00:33:38.501Z,5.52
2022-11-29T00:37:43.449Z,5.50
2022-11-29T00:41:47.174Z,5.43
2022-11-29T00:45:50.773Z,5.40
2022-11-29T00:49:53.833Z,5.29
2022-11-29T00:53:58.794Z,5.31
2022-11-29T00:58:02.300Z,5.26
2022-11-29T01:02:05.377Z,5.21
2022-11-29T01:06:12.185Z,5.18
2022-11-29T01:10:17.554Z,5.17
2022-11-29T01:14:20.669Z,5.17
2022-11-29T01:18:24.101Z,5.20
2022-11-29T01:22:27.634Z,5.24
2022-11-29T01:26:32.708Z,5.29
2022-11-29T01:30:36.267Z,5.34
2022-11-29T01:34:40.038Z,5.39
2022-11-29T01:38:44.246Z,5.46
2022-11-29T01:42:48.861Z,5.52
2022-11-29T01:46:52.734Z,5.58
2022-11-29T01:51:00.043Z,5.64
2022-11-29T01:55:07.444Z,5.69
2022-11-29T01:59:16.038Z,5.75
2022-11-29T02:03:20.078Z,5.78
2022-11-29T02:07:23.621Z,5.84
2022-11-29T02:11:46.628Z,5.88
2022-11-29T02:15:59.077Z,5.93
2022-11-29T02:20:42.506Z,5.95
2022-11-29T02:25:01.770Z,6.00
2022-11-29T02:29:32.458Z,6.04
2022-11-29T02:34:09.300Z,6.08
2022-11-29T02:38:28.972Z,6.11
2022-11-29T02:43:02.410Z,6.13
2022-11-29T02:47:15.790Z,6.18
2022-11-29T02:51:27.953Z,6.19
2022-11-29T02:55:40.451Z,6.23
2022-11-29T02:59:52.487Z,6.23
2022-11-29T03:04:08.850Z,6.26
2022-11-29T03:08:21.722Z,6.27
2022-11-29T03:12:31.574Z,6.27
2022-11-29T03:16:44.893Z,6.27
2022-11-29T03:21:00.098Z,6.28
2022-11-29T03:25:10.802Z,6.29
2022-11-29T03:29:24.927Z,6.30
2022-11-29T03:33:36.818Z,6.30
2022-11-29T03:37:49.473Z,6.31
2022-11-29T03:42:00.655Z,6.32
2022-11-29T03:46:07.582Z,6.30
2022-11-29T03:50:17.580Z,6.30
2022-11-29T03:54:26.133Z,6.30
2022-11-29T03:58:44.407Z,6.31
2022-11-29T04:03:27.575Z,6.30
2022-11-29T04:07:46.037Z,6.33
2022-11-29T04:12:21.459Z,6.31
2022-11-29T04:17:03.024Z,6.29
2022-11-29T04:21:36.763Z,6.28
2022-11-29T04:26:21.035Z,6.30
2022-11-29T04:30:25.469Z,6.30
2022-11-29T04:34:51.673Z,6.30
2022-11-29T04:39:29.265Z,6.32
2022-11-29T04:43:47.118Z,6.33
2022-11-29T04:48:04.047Z,6.33
2022-11-29T04:52:33.937Z,6.35
2022-11-29T04:56:42.560Z,6.38
2022-11-29T05:00:57.517Z,6.38
2022-11-29T05:05:15.532Z,6.39
2022-11-29T05:09:30.963Z,6.39
2022-11-29T05:13:47.199Z,6.39
2022-11-29T05:18:00.533Z,6.38
2022-11-29T05:22:21.927Z,6.36
2022-11-29T05:26:33.121Z,6.33
2022-11-29T05:30:55.782Z,6.30
2022-11-29T05:35:35.191Z,6.27
2022-11-29T05:39:47.451Z,6.24
2022-11-29T05:44:04.677Z,6.22
2022-11-29T05:48:15.547Z,6.20
2022-11-29T05:52:26.172Z,6.17
2022-11-29T05:56:46.618Z,6.16
2022-11-29T06:00:58.543Z,6.15
2022-11-29T06:05:12.242Z,6.16
2022-11-29T06:09:22.668Z,6.15
2022-11-29T06:13:38.364Z,6.15
2022-11-29T06:18:07.929Z,6.14
2022-11-29T06:22:30.224Z,6.16
2022-11-29T06:26:48.683Z,6.15
2022-11-29T06:31:02.696Z,6.15
2022-11-29T06:35:19.681Z,6.14
2022-11-29T06:39:23.783Z,6.13
2022-11-29T06:43:27.787Z,6.13
2022-11-29T06:47:38.824Z,6.13
2022-11-29T06:51:53.697Z,6.13
2022-11-29T06:56:06.455Z,6.05
2022-11-29T07:00:14.598Z,6.17
2022-11-29T07:04:34.685Z,6.14
2022-11-29T07:08:41.404Z,6.16
2022-11-29T07:12:45.782Z,6.16
2022-11-29T07:16:57.779Z,6.20
2022-11-29T07:21:14.017Z,6.23
2022-11-29T07:25:27.949Z,6.25
2022-11-29T07:29:42.181Z,6.31
2022-11-29T07:33:55.855Z,6.35
2022-11-29T07:38:10.693Z,6.38
2022-11-29T07:42:21.839Z,6.41
2022-11-29T07:46:26.287Z,6.44
2022-11-29T07:50:30.614Z,6.49
2022-11-29T07:54:34.289Z,6.52
2022-11-29T07:58:39.289Z,6.57
2022-11-29T08:02:43.214Z,6.61
2022-11-29T08:06:46.964Z,6.65
2022-11-29T08:10:50.400Z,6.68
2022-11-29T08:14:55.477Z,6.79
2022-11-29T08:19:00.275Z,6.84
2022-11-29T08:23:04.073Z,6.90
2022-11-29T08:27:07.762Z,6.96
2022-11-29T08:31:14.787Z,6.91
2022-11-29T08:35:18.625Z,7.06
2022-11-29T08:39:22.228Z,7.13
2022-11-29T08:43:25.742Z,7.15
2022-11-29T08:47:40.642Z,7.15
2022-11-29T08:51:43.794Z,7.24
2022-11-29T08:55:47.520Z,7.29
2022-11-29T08:59:51.372Z,7.34
2022-11-29T09:04:03.686Z,7.37
2022-11-29T09:08:06.837Z,7.39
2022-11-29T09:12:10.399Z,7.44
2022-11-29T09:16:18.168Z,7.51
2022-11-29T09:20:23.299Z,7.51
2022-11-29T09:24:26.835Z,7.57
2022-11-29T09:28:29.861Z,7.70
2022-11-29T09:32:33.328Z,7.75
2022-11-29T09:36:38.523Z,7.84
2022-11-29T09:40:48.532Z,7.95
2022-11-29T09:45:02.221Z,7.99
2022-11-29T09:49:29.719Z,8.08
2022-11-29T09:53:46.902Z,8.05
2022-11-29T09:57:52.490Z,8.18
2022-11-29T10:02:02.024Z,8.26
2022-11-29T10:06:13.482Z,8.31
2022-11-29T10:10:23.794Z,8.35
2022-11-29T10:14:33.153Z,8.49
2022-11-29T10:18:40.238Z,8.59
2022-11-29T10:22:53.951Z,8.70
2022-11-29T10:26:59.569Z,8.79
2022-11-29T10:31:10.393Z,8.89
2022-11-29T10:35:15.659Z,8.98
2022-11-29T10:39:25.136Z,9.09
2022-11-29T10:43:30.115Z,9.19
2022-11-29T10:47:33.977Z,9.23
2022-11-29T10:51:37.084Z,9.31
2022-11-29T10:55:46.025Z,9.35
2022-11-29T11:00:04.672Z,9.34
2022-11-29T11:04:11.420Z,9.31
2022-11-29T11:08:18.671Z,9.24
2022-11-29T11:12:25.716Z,9.22
2022-11-29T11:16:35.583Z,9.17
2022-11-29T11:20:45.117Z,9.13
2022-11-29T11:24:48.592Z,9.10
2022-11-29T11:28:56.759Z,9.05
2022-11-29T11:33:22.032Z,9.01
2022-11-29T11:37:27.815Z,8.95
2022-11-29T11:41:46.716Z,8.98
2022-11-29T11:45:55.087Z,9.01
2022-11-29T11:50:14.000Z,9.07
2022-11-29T11:54:18.341Z,9.08
2022-11-29T11:58:24.676Z,9.15
2022-11-29T12:02:30.461Z,9.16
2022-11-29T12:06:43.338Z,9.16
2022-11-29T12:10:47.555Z,9.18
2022-11-29T12:14:57.966Z,9.16
2022-11-29T12:19:07.279Z,9.11
2022-11-29T12:23:32.855Z,9.08
2022-11-29T12:27:36.017Z,9.05
2022-11-29T12:32:08.538Z,8.93
2022-11-29T12:36:27.465Z,9.04
2022-11-29T12:40:40.132Z,8.65
2022-11-29T12:44:53.204Z,8.92
2022-11-29T12:49:07.482Z,8.84
2022-11-29T12:53:27.332Z,8.92
2022-11-29T12:57:39.742Z,8.91
2022-11-29T13:02:00.266Z,8.89
2022-11-29T13:06:25.863Z,8.87
2022-11-29T13:10:39.534Z,8.84
2022-11-29T13:14:53.079Z,8.84
2022-11-29T13:19:03.671Z,8.84
2022-11-29T13:23:18.437Z,8.85
2022-11-29T13:27:27.785Z,8.87
2022-11-29T13:31:33.097Z,8.87
2022-11-29T13:35:40.722Z,8.87
2022-11-29T13:40:01.184Z,8.83
2022-11-29T13:44:13.055Z,8.81
2022-11-29T13:48:36.793Z,8.79
2022-11-29T13:52:42.457Z,8.78
2022-11-29T13:56:47.135Z,8.77
2022-11-29T14:00:53.953Z,8.77
2022-11-29T14:04:58.989Z,8.76
2022-11-29T14:09:26.635Z,8.73
2022-11-29T14:13:35.395Z,8.68
2022-11-29T14:17:51.842Z,8.63
2022-11-29T14:22:23.426Z,8.58
2022-11-29T14:26:29.404Z,8.52
2022-11-29T14:30:52.417Z,8.48
2022-11-29T14:35:01.222Z,8.46
2022-11-29T14:39:20.416Z,8.41
2022-11-29T14:43:28.578Z,8.36
2022-11-29T14:47:37.319Z,8.33
2022-11-29T14:51:41.222Z,8.28
2022-11-29T14:55:45.761Z,8.22
2022-11-29T14:59:52.978Z,8.14
2022-11-29T15:03:58.564Z,8.02
2022-11-29T15:08:10.974Z,7.93
2022-11-29T15:12:20.786Z,7.80
2022-11-29T15:16:39.866Z,7.70
2022-11-29T15:20:59.054Z,7.57
2022-11-29T15:25:07.269Z,7.44
2022-11-29T15:29:17.178Z,7.30
2022-11-29T15:33:23.349Z,7.15
2022-11-29T15:37:43.272Z,6.99
2022-11-29T15:41:47.000Z,6.85
2022-11-29T15:45:53.388Z,6.71
2022-11-29T15:49:56.453Z,6.59
2022-11-29T15:54:12.737Z,6.50
2022-11-29T15:58:18.335Z,6.42
2022-11-29T16:02:26.166Z,6.36
2022-11-29T16:06:36.197Z,6.32
2022-11-29T16:10:47.516Z,6.27
2022-11-29T16:14:52.947Z,6.24
2022-11-29T16:19:13.928Z,6.22
2022-11-29T16:23:17.110Z,6.19
2022-11-29T16:27:22.462Z,6.17
2022-11-29T16:31:33.173Z,6.18
2022-11-29T16:35:38.053Z,6.17
2022-11-29T16:39:41.438Z,6.15
2022-11-29T16:43:55.291Z,6.16
2022-11-29T16:47:59.740Z,6.15
2022-11-29T16:52:24.460Z,6.15
2022-11-29T16:56:30.395Z,6.15
2022-11-29T17:04:59.226Z,6.09
2022-11-29T17:09:04.842Z,6.05
2022-11-29T17:13:11.113Z,6.02
2022-11-29T17:17:16.414Z,5.98
2022-11-29T17:21:20.102Z,5.94
2022-11-29T17:25:24.868Z,5.92
2022-11-29T17:29:27.991Z,5.91
2022-11-29T17:33:31.774Z,5.90
2022-11-29T17:37:35.370Z,5.90
2022-11-29T17:41:40.444Z,5.90
2022-11-29T17:45:43.612Z,5.88
2022-11-29T17:49:47.610Z,5.91
2022-11-29T17:53:52.807Z,5.89
2022-11-29T17:57:58.870Z,5.89
2022-11-29T18:02:04.307Z,5.88
2022-11-29T18:06:09.975Z,5.84
2022-11-29T18:10:13.910Z,5.81
2022-11-29T18:14:21.656Z,5.78
2022-11-29T18:18:29.718Z,5.75
2022-11-29T18:22:33.307Z,5.72
2022-11-29T18:26:38.208Z,5.69
2022-11-29T18:30:43.072Z,5.66
2022-11-29T18:34:48.126Z,5.62
2022-11-29T18:38:57.131Z,5.58
2022-11-29T18:43:01.086Z,5.52
2022-11-29T18:47:05.721Z,5.50
2022-11-29T18:51:13.216Z,5.45
2022-11-29T18:55:17.568Z,5.40
2022-11-29T18:59:23.576Z,5.33
2022-11-29T19:03:30.089Z,5.25
2022-11-29T19:07:38.443Z,5.17
2022-11-29T19:11:42.205Z,5.08
2022-11-29T19:15:45.719Z,5.01
2022-11-29T19:19:50.405Z,4.95
2022-11-29T19:23:54.709Z,4.86
2022-11-29T19:28:00.604Z,4.77
2022-11-29T19:32:04.494Z,4.70
2022-11-29T19:36:17.879Z,4.69
2022-11-29T19:40:23.261Z,4.67
2022-11-29T19:44:30.021Z,4.64
2022-11-29T19:48:33.274Z,4.64
2022-11-29T19:52:38.212Z,4.62
2022-11-29T19:56:42.047Z,4.60
2022-11-29T20:00:45.649Z,4.58
2022-11-29T20:04:49.895Z,4.56
2022-11-29T20:08:55.438Z,4.51
2022-11-29T20:12:59.005Z,4.46
2022-11-29T20:17:03.062Z,4.40
2022-11-29T20:21:08.001Z,4.32
2022-11-29T20:25:13.972Z,4.10
2022-11-29T20:29:18.602Z,4.11
2022-11-29T20:33:25.098Z,4.01
2022-11-29T20:37:55.968Z,3.91
2022-11-29T20:42:20.601Z,3.82
2022-11-29T20:46:26.164Z,3.73
2022-11-29T20:50:32.207Z,3.68
2022-11-29T20:54:35.307Z,3.63
2022-11-29T20:58:40.948Z,3.53
2022-11-29T21:02:44.050Z,3.57
2022-11-29T21:06:47.550Z,3.51
2022-11-29T21:10:52.613Z,3.55
2022-11-29T21:14:58.011Z,3.47
2022-11-29T21:19:04.034Z,3.54
2022-11-29T21:23:15.723Z,3.57
2022-11-29T21:27:27.427Z,3.48
2022-11-29T21:31:33.116Z,3.55
2022-11-29T21:35:38.692Z,3.54
2022-11-29T21:39:41.767Z,3.54
2022-11-29T21:44:13.666Z,3.52
2022-11-29T21:48:32.197Z,3.51
2022-11-29T21:52:35.554Z,3.50
2022-11-29T21:56:39.253Z,3.47
2022-11-29T22:00:43.189Z,3.44
2022-11-29T22:04:50.304Z,3.36
2022-11-29T22:08:53.440Z,3.44
2022-11-29T22:12:57.061Z,3.45
2022-11-29T22:17:04.647Z,3.47
2022-11-29T22:21:09.337Z,3.53
2022-11-29T22:25:13.234Z,3.59
2022-11-29T22:29:17.522Z,3.66
2022-11-29T22:33:22.124Z,3.76
2022-11-29T22:37:27.216Z,3.85
2022-11-29T22:41:30.413Z,3.94
2022-11-29T22:45:33.947Z,4.05
2022-11-29T22:49:37.628Z,4.18
2022-11-29T22:53:44.520Z,4.30
2022-11-29T22:57:47.979Z,4.39
2022-11-29T23:01:51.229Z,4.42
2022-11-29T23:05:54.922Z,4.53
2022-11-29T23:09:59.905Z,4.59
2022-11-29T23:14:03.700Z,4.57
2022-11-29T23:18:07.137Z,4.68
2022-11-29T23:22:10.315Z,4.72
2022-11-29T23:26:21.270Z,4.77
2022-11-29T23:30:24.781Z,4.77
2022-11-29T23:34:29.048Z,4.78
2022-11-29T23:38:33.135Z,4.77
2022-11-29T23:42:39.202Z,4.77
2022-11-29T23:46:44.670Z,4.74
2022-11-29T23:50:48.267Z,4.71
2022-11-29T23:54:52.089Z,4.69
2022-11-29T23:58:57.110Z,4.68
